sensor_id;sensor_type;location;lat;lon;timestamp;P1;durP1;ratioP1;P2;durP2;ratioP2
53801;SDS011;39709;53.334;6.534;2023-03-31T00:00:29;11.47;;;1.27;;
53801;SDS011;39709;53.334;6.534;2023-03-31T00:02:55;9.82;;;1.15;;
53801;SDS011;39709;53.334;6.534;2023-03-31T00:05:22;17.38;;;2.03;;
53801;SDS011;39709;53.334;6.534;2023-03-31T00:07:56;16.55;;;1.65;;
53801;SDS011;39709;53.334;6.534;2023-03-31T00:10:28;21.77;;;2.57;;
53801;SDS011;39709;53.334;6.534;2023-03-31T00:12:59;21.05;;;1.98;;
53801;SDS011;39709;53.334;6.534;2023-03-31T00:15:26;15.15;;;1.90;;
53801;SDS011;39709;53.334;6.534;2023-03-31T00:17:53;19.38;;;2.50;;
53801;SDS011;39709;53.334;6.534;2023-03-31T00:20:18;20.17;;;2.13;;
53801;SDS011;39709;53.334;6.534;2023-03-31T00:22:44;8.27;;;1.02;;
53801;SDS011;39709;53.334;6.534;2023-03-31T00:25:11;23.85;;;2.20;;
53801;SDS011;39709;53.334;6.534;2023-03-31T00:27:37;16.55;;;1.65;;
53801;SDS011;39709;53.334;6.534;2023-03-31T00:30:06;8.70;;;0.83;;
53801;SDS011;39709;53.334;6.534;2023-03-31T00:32:32;20.38;;;2.53;;
53801;SDS011;39709;53.334;6.534;2023-03-31T00:34:58;17.65;;;1.73;;
53801;SDS011;39709;53.334;6.534;2023-03-31T00:37:26;18.90;;;1.87;;
53801;SDS011;39709;53.334;6.534;2023-03-31T00:39:52;22.67;;;2.42;;
53801;SDS011;39709;53.334;6.534;2023-03-31T00:42:18;17.10;;;1.55;;
53801;SDS011;39709;53.334;6.534;2023-03-31T00:47:38;24.08;;;2.50;;
53801;SDS011;39709;53.334;6.534;2023-03-31T00:50:13;21.77;;;1.75;;
53801;SDS011;39709;53.334;6.534;2023-03-31T00:52:46;12.57;;;1.70;;
53801;SDS011;39709;53.334;6.534;2023-03-31T00:55:16;21.70;;;2.03;;
53801;SDS011;39709;53.334;6.534;2023-03-31T00:57:46;13.55;;;1.38;;
53801;SDS011;39709;53.334;6.534;2023-03-31T01:00:17;16.58;;;2.13;;
53801;SDS011;39709;53.334;6.534;2023-03-31T01:02:53;24.85;;;3.08;;
53801;SDS011;39709;53.334;6.534;2023-03-31T01:05:34;24.05;;;3.22;;
53801;SDS011;39709;53.334;6.534;2023-03-31T01:08:03;25.50;;;2.80;;
53801;SDS011;39709;53.334;6.534;2023-03-31T01:10:32;23.10;;;1.92;;
53801;SDS011;39709;53.334;6.534;2023-03-31T01:13:05;25.80;;;2.28;;
53801;SDS011;39709;53.334;6.534;2023-03-31T01:15:34;30.08;;;3.25;;
53801;SDS011;39709;53.334;6.534;2023-03-31T01:18:00;19.15;;;1.73;;
53801;SDS011;39709;53.334;6.534;2023-03-31T01:26:16;16.58;;;1.45;;
53801;SDS011;39709;53.334;6.534;2023-03-31T01:38:01;20.10;;;2.45;;
53801;SDS011;39709;53.334;6.534;2023-03-31T01:46:44;16.48;;;1.40;;
53801;SDS011;39709;53.334;6.534;2023-03-31T01:49:30;18.53;;;2.10;;
53801;SDS011;39709;53.334;6.534;2023-03-31T01:55:07;18.40;;;1.35;;
53801;SDS011;39709;53.334;6.534;2023-03-31T01:57:39;12.82;;;1.10;;
53801;SDS011;39709;53.334;6.534;2023-03-31T02:00:10;19.80;;;3.05;;
53801;SDS011;39709;53.334;6.534;2023-03-31T02:05:15;13.98;;;1.58;;
53801;SDS011;39709;53.334;6.534;2023-03-31T02:07:48;19.67;;;2.28;;
53801;SDS011;39709;53.334;6.534;2023-03-31T02:10:28;19.17;;;1.60;;
53801;SDS011;39709;53.334;6.534;2023-03-31T02:12:56;14.65;;;1.77;;
53801;SDS011;39709;53.334;6.534;2023-03-31T02:15:26;12.03;;;1.40;;
53801;SDS011;39709;53.334;6.534;2023-03-31T02:17:56;18.17;;;1.88;;
53801;SDS011;39709;53.334;6.534;2023-03-31T02:20:24;15.20;;;1.80;;
53801;SDS011;39709;53.334;6.534;2023-03-31T02:22:53;20.17;;;2.03;;
53801;SDS011;39709;53.334;6.534;2023-03-31T02:26:03;13.65;;;1.63;;
53801;SDS011;39709;53.334;6.534;2023-03-31T02:28:14;20.00;;;2.10;;
53801;SDS011;39709;53.334;6.534;2023-03-31T02:33:42;14.27;;;1.48;;
53801;SDS011;39709;53.334;6.534;2023-03-31T02:36:08;11.15;;;2.47;;
53801;SDS011;39709;53.334;6.534;2023-03-31T02:38:38;8.97;;;0.83;;
53801;SDS011;39709;53.334;6.534;2023-03-31T02:41:10;14.23;;;1.42;;
53801;SDS011;39709;53.334;6.534;2023-03-31T02:43:36;19.38;;;2.45;;
53801;SDS011;39709;53.334;6.534;2023-03-31T02:46:02;12.82;;;1.70;;
53801;SDS011;39709;53.334;6.534;2023-03-31T02:48:32;20.37;;;1.70;;
53801;SDS011;39709;53.334;6.534;2023-03-31T03:02:13;18.07;;;1.70;;
53801;SDS011;39709;53.334;6.534;2023-03-31T03:07:55;9.48;;;0.88;;
53801;SDS011;39709;53.334;6.534;2023-03-31T03:13:27;7.93;;;0.63;;
53801;SDS011;39709;53.334;6.534;2023-03-31T03:16:38;13.77;;;1.67;;
53801;SDS011;39709;53.334;6.534;2023-03-31T03:19:04;10.43;;;0.95;;
53801;SDS011;39709;53.334;6.534;2023-03-31T03:21:31;18.75;;;1.80;;
53801;SDS011;39709;53.334;6.534;2023-03-31T03:23:57;9.57;;;1.08;;
53801;SDS011;39709;53.334;6.534;2023-03-31T03:26:24;11.88;;;1.35;;
53801;SDS011;39709;53.334;6.534;2023-03-31T03:28:52;17.13;;;1.87;;
53801;SDS011;39709;53.334;6.534;2023-03-31T03:31:19;8.45;;;0.77;;
53801;SDS011;39709;53.334;6.534;2023-03-31T03:33:48;5.55;;;0.63;;
53801;SDS011;39709;53.334;6.534;2023-03-31T03:36:14;16.08;;;1.83;;
53801;SDS011;39709;53.334;6.534;2023-03-31T03:38:40;11.63;;;1.43;;
53801;SDS011;39709;53.334;6.534;2023-03-31T03:41:06;19.65;;;2.22;;
53801;SDS011;39709;53.334;6.534;2023-03-31T03:43:32;6.95;;;0.98;;
53801;SDS011;39709;53.334;6.534;2023-03-31T03:45:58;14.80;;;1.90;;
53801;SDS011;39709;53.334;6.534;2023-03-31T03:48:23;13.85;;;1.63;;
53801;SDS011;39709;53.334;6.534;2023-03-31T03:50:50;11.90;;;1.40;;
53801;SDS011;39709;53.334;6.534;2023-03-31T03:53:17;19.97;;;2.20;;
53801;SDS011;39709;53.334;6.534;2023-03-31T03:55:43;19.60;;;2.10;;
53801;SDS011;39709;53.334;6.534;2023-03-31T03:58:09;13.45;;;1.55;;
53801;SDS011;39709;53.334;6.534;2023-03-31T04:00:35;10.60;;;0.95;;
53801;SDS011;39709;53.334;6.534;2023-03-31T04:03:01;16.30;;;1.50;;
53801;SDS011;39709;53.334;6.534;2023-03-31T04:05:26;14.73;;;1.30;;
53801;SDS011;39709;53.334;6.534;2023-03-31T04:07:52;8.35;;;0.80;;
53801;SDS011;39709;53.334;6.534;2023-03-31T04:10:18;17.63;;;1.83;;
53801;SDS011;39709;53.334;6.534;2023-03-31T04:12:43;6.65;;;0.60;;
53801;SDS011;39709;53.334;6.534;2023-03-31T04:15:09;19.00;;;1.63;;
53801;SDS011;39709;53.334;6.534;2023-03-31T04:17:35;6.13;;;1.10;;
53801;SDS011;39709;53.334;6.534;2023-03-31T04:20:05;7.53;;;1.58;;
53801;SDS011;39709;53.334;6.534;2023-03-31T04:22:33;9.05;;;1.00;;
53801;SDS011;39709;53.334;6.534;2023-03-31T04:25:05;9.87;;;1.70;;
53801;SDS011;39709;53.334;6.534;2023-03-31T04:27:34;4.30;;;0.50;;
53801;SDS011;39709;53.334;6.534;2023-03-31T04:30:00;8.90;;;1.25;;
53801;SDS011;39709;53.334;6.534;2023-03-31T04:32:26;2.23;;;0.40;;
53801;SDS011;39709;53.334;6.534;2023-03-31T04:34:52;5.45;;;0.68;;
53801;SDS011;39709;53.334;6.534;2023-03-31T04:37:28;11.70;;;1.45;;
53801;SDS011;39709;53.334;6.534;2023-03-31T04:39:59;9.65;;;1.33;;
53801;SDS011;39709;53.334;6.534;2023-03-31T04:42:32;12.45;;;1.90;;
53801;SDS011;39709;53.334;6.534;2023-03-31T04:44:58;6.17;;;0.83;;
53801;SDS011;39709;53.334;6.534;2023-03-31T04:47:23;13.63;;;1.90;;
53801;SDS011;39709;53.334;6.534;2023-03-31T04:49:49;11.83;;;1.83;;
53801;SDS011;39709;53.334;6.534;2023-03-31T04:52:15;7.60;;;1.45;;
53801;SDS011;39709;53.334;6.534;2023-03-31T04:54:40;1.87;;;0.40;;
53801;SDS011;39709;53.334;6.534;2023-03-31T04:57:06;12.77;;;1.88;;
53801;SDS011;39709;53.334;6.534;2023-03-31T04:59:32;7.33;;;1.50;;
53801;SDS011;39709;53.334;6.534;2023-03-31T05:01:57;10.90;;;2.72;;
53801;SDS011;39709;53.334;6.534;2023-03-31T05:04:23;9.00;;;2.10;;
53801;SDS011;39709;53.334;6.534;2023-03-31T05:06:49;10.52;;;1.85;;
53801;SDS011;39709;53.334;6.534;2023-03-31T05:09:15;5.70;;;0.70;;
53801;SDS011;39709;53.334;6.534;2023-03-31T05:11:41;10.53;;;2.50;;
53801;SDS011;39709;53.334;6.534;2023-03-31T05:14:06;11.60;;;2.40;;
53801;SDS011;39709;53.334;6.534;2023-03-31T05:16:32;10.50;;;2.80;;
53801;SDS011;39709;53.334;6.534;2023-03-31T05:18:58;11.95;;;2.97;;
53801;SDS011;39709;53.334;6.534;2023-03-31T05:21:23;5.57;;;0.60;;
53801;SDS011;39709;53.334;6.534;2023-03-31T05:23:51;13.52;;;3.80;;
53801;SDS011;39709;53.334;6.534;2023-03-31T05:26:17;10.63;;;3.35;;
53801;SDS011;39709;53.334;6.534;2023-03-31T05:28:43;7.90;;;1.30;;
53801;SDS011;39709;53.334;6.534;2023-03-31T05:31:09;12.37;;;2.30;;
53801;SDS011;39709;53.334;6.534;2023-03-31T05:33:36;11.07;;;3.55;;
53801;SDS011;39709;53.334;6.534;2023-03-31T05:36:06;6.22;;;1.20;;
53801;SDS011;39709;53.334;6.534;2023-03-31T05:38:33;14.55;;;3.67;;
53801;SDS011;39709;53.334;6.534;2023-03-31T05:40:58;10.87;;;2.50;;
53801;SDS011;39709;53.334;6.534;2023-03-31T05:43:24;9.77;;;2.60;;
53801;SDS011;39709;53.334;6.534;2023-03-31T05:45:50;11.93;;;4.43;;
53801;SDS011;39709;53.334;6.534;2023-03-31T05:48:16;14.88;;;4.28;;
53801;SDS011;39709;53.334;6.534;2023-03-31T05:50:42;13.98;;;3.88;;
53801;SDS011;39709;53.334;6.534;2023-03-31T05:53:08;17.08;;;3.92;;
53801;SDS011;39709;53.334;6.534;2023-03-31T05:55:34;9.57;;;2.83;;
53801;SDS011;39709;53.334;6.534;2023-03-31T05:58:01;11.20;;;3.17;;
53801;SDS011;39709;53.334;6.534;2023-03-31T06:00:27;14.18;;;3.88;;
53801;SDS011;39709;53.334;6.534;2023-03-31T06:02:52;11.63;;;3.95;;
53801;SDS011;39709;53.334;6.534;2023-03-31T06:05:18;17.07;;;4.27;;
53801;SDS011;39709;53.334;6.534;2023-03-31T06:07:44;13.38;;;3.30;;
53801;SDS011;39709;53.334;6.534;2023-03-31T06:10:10;14.73;;;4.00;;
53801;SDS011;39709;53.334;6.534;2023-03-31T06:12:35;17.50;;;4.78;;
53801;SDS011;39709;53.334;6.534;2023-03-31T06:15:01;14.43;;;4.20;;
53801;SDS011;39709;53.334;6.534;2023-03-31T06:17:27;11.40;;;3.30;;
53801;SDS011;39709;53.334;6.534;2023-03-31T06:19:53;18.63;;;3.70;;
53801;SDS011;39709;53.334;6.534;2023-03-31T06:22:19;13.60;;;4.47;;
53801;SDS011;39709;53.334;6.534;2023-03-31T06:24:45;14.93;;;3.90;;
53801;SDS011;39709;53.334;6.534;2023-03-31T06:27:11;12.17;;;3.83;;
53801;SDS011;39709;53.334;6.534;2023-03-31T06:29:36;10.10;;;3.28;;
53801;SDS011;39709;53.334;6.534;2023-03-31T06:32:02;10.43;;;3.17;;
53801;SDS011;39709;53.334;6.534;2023-03-31T06:34:29;12.88;;;3.20;;
53801;SDS011;39709;53.334;6.534;2023-03-31T06:36:54;13.48;;;3.65;;
53801;SDS011;39709;53.334;6.534;2023-03-31T06:39:20;14.27;;;3.07;;
53801;SDS011;39709;53.334;6.534;2023-03-31T06:41:46;11.35;;;3.13;;
53801;SDS011;39709;53.334;6.534;2023-03-31T06:44:12;13.60;;;3.57;;
53801;SDS011;39709;53.334;6.534;2023-03-31T06:46:40;12.55;;;3.15;;
53801;SDS011;39709;53.334;6.534;2023-03-31T06:49:07;10.32;;;2.88;;
53801;SDS011;39709;53.334;6.534;2023-03-31T06:51:32;11.97;;;4.00;;
53801;SDS011;39709;53.334;6.534;2023-03-31T06:53:58;16.35;;;3.42;;
53801;SDS011;39709;53.334;6.534;2023-03-31T06:56:24;19.20;;;5.47;;
53801;SDS011;39709;53.334;6.534;2023-03-31T06:58:51;13.43;;;3.63;;
53801;SDS011;39709;53.334;6.534;2023-03-31T07:01:17;13.23;;;3.83;;
53801;SDS011;39709;53.334;6.534;2023-03-31T07:03:42;14.40;;;3.67;;
53801;SDS011;39709;53.334;6.534;2023-03-31T07:06:08;13.18;;;3.80;;
53801;SDS011;39709;53.334;6.534;2023-03-31T07:08:34;12.50;;;4.00;;
53801;SDS011;39709;53.334;6.534;2023-03-31T07:11:00;12.23;;;3.65;;
53801;SDS011;39709;53.334;6.534;2023-03-31T07:13:26;13.02;;;3.25;;
53801;SDS011;39709;53.334;6.534;2023-03-31T07:15:53;10.55;;;2.95;;
53801;SDS011;39709;53.334;6.534;2023-03-31T07:18:19;15.40;;;3.80;;
53801;SDS011;39709;53.334;6.534;2023-03-31T07:20:50;12.80;;;4.05;;
53801;SDS011;39709;53.334;6.534;2023-03-31T07:23:16;11.27;;;4.32;;
53801;SDS011;39709;53.334;6.534;2023-03-31T07:25:42;11.65;;;3.55;;
53801;SDS011;39709;53.334;6.534;2023-03-31T07:28:09;10.82;;;3.63;;
53801;SDS011;39709;53.334;6.534;2023-03-31T07:30:35;9.60;;;2.63;;
53801;SDS011;39709;53.334;6.534;2023-03-31T07:33:00;12.73;;;2.72;;
53801;SDS011;39709;53.334;6.534;2023-03-31T07:35:26;11.47;;;2.63;;
53801;SDS011;39709;53.334;6.534;2023-03-31T07:37:52;10.30;;;2.80;;
53801;SDS011;39709;53.334;6.534;2023-03-31T07:40:25;9.88;;;2.90;;
53801;SDS011;39709;53.334;6.534;2023-03-31T07:42:52;12.90;;;2.80;;
53801;SDS011;39709;53.334;6.534;2023-03-31T07:45:19;13.38;;;2.72;;
53801;SDS011;39709;53.334;6.534;2023-03-31T07:47:46;8.65;;;2.92;;
53801;SDS011;39709;53.334;6.534;2023-03-31T07:50:13;11.68;;;2.90;;
53801;SDS011;39709;53.334;6.534;2023-03-31T07:52:39;7.95;;;2.75;;
53801;SDS011;39709;53.334;6.534;2023-03-31T07:55:06;10.77;;;2.50;;
53801;SDS011;39709;53.334;6.534;2023-03-31T07:57:32;11.95;;;3.00;;
53801;SDS011;39709;53.334;6.534;2023-03-31T07:59:58;10.20;;;3.42;;
53801;SDS011;39709;53.334;6.534;2023-03-31T08:02:24;10.02;;;3.08;;
53801;SDS011;39709;53.334;6.534;2023-03-31T08:04:50;7.73;;;2.83;;
53801;SDS011;39709;53.334;6.534;2023-03-31T08:07:16;10.60;;;2.63;;
53801;SDS011;39709;53.334;6.534;2023-03-31T08:09:42;9.90;;;2.80;;
53801;SDS011;39709;53.334;6.534;2023-03-31T08:12:10;10.02;;;3.13;;
53801;SDS011;39709;53.334;6.534;2023-03-31T08:14:36;12.13;;;2.90;;
53801;SDS011;39709;53.334;6.534;2023-03-31T08:17:02;12.30;;;3.90;;
53801;SDS011;39709;53.334;6.534;2023-03-31T08:19:28;10.93;;;3.17;;
53801;SDS011;39709;53.334;6.534;2023-03-31T08:21:55;12.57;;;3.40;;
53801;SDS011;39709;53.334;6.534;2023-03-31T08:24:20;9.13;;;2.53;;
53801;SDS011;39709;53.334;6.534;2023-03-31T08:26:46;9.30;;;2.57;;
53801;SDS011;39709;53.334;6.534;2023-03-31T08:29:12;12.85;;;3.25;;
53801;SDS011;39709;53.334;6.534;2023-03-31T08:31:38;12.70;;;2.78;;
53801;SDS011;39709;53.334;6.534;2023-03-31T08:34:04;15.23;;;2.70;;
53801;SDS011;39709;53.334;6.534;2023-03-31T08:36:30;10.60;;;2.78;;
53801;SDS011;39709;53.334;6.534;2023-03-31T08:38:56;9.50;;;2.40;;
53801;SDS011;39709;53.334;6.534;2023-03-31T08:44:20;6.22;;;2.00;;
53801;SDS011;39709;53.334;6.534;2023-03-31T08:47:04;8.25;;;2.00;;
53801;SDS011;39709;53.334;6.534;2023-03-31T08:50:10;5.90;;;1.80;;
53801;SDS011;39709;53.334;6.534;2023-03-31T08:52:36;10.23;;;2.22;;
53801;SDS011;39709;53.334;6.534;2023-03-31T08:55:09;7.35;;;1.20;;
53801;SDS011;39709;53.334;6.534;2023-03-31T09:00:44;11.50;;;2.50;;
53801;SDS011;39709;53.334;6.534;2023-03-31T09:03:37;5.80;;;1.63;;
53801;SDS011;39709;53.334;6.534;2023-03-31T09:06:25;7.53;;;1.75;;
53801;SDS011;39709;53.334;6.534;2023-03-31T09:08:58;9.60;;;2.15;;
53801;SDS011;39709;53.334;6.534;2023-03-31T09:25:31;8.80;;;2.25;;
53801;SDS011;39709;53.334;6.534;2023-03-31T09:28:01;7.15;;;2.03;;
53801;SDS011;39709;53.334;6.534;2023-03-31T09:30:29;9.47;;;2.30;;
53801;SDS011;39709;53.334;6.534;2023-03-31T09:33:22;7.35;;;1.90;;
53801;SDS011;39709;53.334;6.534;2023-03-31T09:35:51;4.05;;;0.70;;
53801;SDS011;39709;53.334;6.534;2023-03-31T09:38:17;6.72;;;1.75;;
53801;SDS011;39709;53.334;6.534;2023-03-31T09:40:42;10.63;;;2.13;;
53801;SDS011;39709;53.334;6.534;2023-03-31T09:43:17;8.15;;;1.95;;
53801;SDS011;39709;53.334;6.534;2023-03-31T09:45:47;9.05;;;1.90;;
53801;SDS011;39709;53.334;6.534;2023-03-31T09:48:24;7.43;;;1.83;;
53801;SDS011;39709;53.334;6.534;2023-03-31T09:53:31;4.15;;;1.00;;
53801;SDS011;39709;53.334;6.534;2023-03-31T09:56:04;4.28;;;0.90;;
53801;SDS011;39709;53.334;6.534;2023-03-31T09:58:42;8.75;;;2.30;;
53801;SDS011;39709;53.334;6.534;2023-03-31T10:01:10;9.47;;;2.13;;
53801;SDS011;39709;53.334;6.534;2023-03-31T10:04:13;6.07;;;1.05;;
53801;SDS011;39709;53.334;6.534;2023-03-31T10:06:32;3.92;;;0.73;;
53801;SDS011;39709;53.334;6.534;2023-03-31T10:09:05;6.47;;;1.38;;
53801;SDS011;39709;53.334;6.534;2023-03-31T10:11:34;5.78;;;1.60;;
53801;SDS011;39709;53.334;6.534;2023-03-31T10:14:02;7.87;;;1.57;;
53801;SDS011;39709;53.334;6.534;2023-03-31T10:19:12;8.70;;;2.05;;
53801;SDS011;39709;53.334;6.534;2023-03-31T10:21:38;5.72;;;1.20;;
53801;SDS011;39709;53.334;6.534;2023-03-31T10:24:08;4.88;;;0.95;;
53801;SDS011;39709;53.334;6.534;2023-03-31T10:26:34;3.93;;;1.17;;
53801;SDS011;39709;53.334;6.534;2023-03-31T10:29:01;5.93;;;0.98;;
53801;SDS011;39709;53.334;6.534;2023-03-31T10:31:34;5.38;;;1.20;;
53801;SDS011;39709;53.334;6.534;2023-03-31T10:34:05;6.72;;;1.50;;
53801;SDS011;39709;53.334;6.534;2023-03-31T10:36:33;7.60;;;1.60;;
53801;SDS011;39709;53.334;6.534;2023-03-31T10:39:03;6.13;;;1.93;;
53801;SDS011;39709;53.334;6.534;2023-03-31T10:41:31;6.20;;;1.95;;
53801;SDS011;39709;53.334;6.534;2023-03-31T10:43:58;9.55;;;2.00;;
53801;SDS011;39709;53.334;6.534;2023-03-31T10:46:45;9.35;;;1.40;;
53801;SDS011;39709;53.334;6.534;2023-03-31T10:51:51;1.97;;;0.43;;
53801;SDS011;39709;53.334;6.534;2023-03-31T10:54:21;5.95;;;1.25;;
53801;SDS011;39709;53.334;6.534;2023-03-31T10:56:49;3.75;;;0.57;;
53801;SDS011;39709;53.334;6.534;2023-03-31T11:21:05;2.10;;;0.40;;
53801;SDS011;39709;53.334;6.534;2023-03-31T11:26:42;3.73;;;0.93;;
53801;SDS011;39709;53.334;6.534;2023-03-31T11:43:29;4.90;;;0.93;;
53801;SDS011;39709;53.334;6.534;2023-03-31T11:46:05;7.10;;;1.70;;
53801;SDS011;39709;53.334;6.534;2023-03-31T11:51:17;4.75;;;0.82;;
53801;SDS011;39709;53.334;6.534;2023-03-31T11:53:48;7.00;;;1.13;;
53801;SDS011;39709;53.334;6.534;2023-03-31T11:56:17;7.18;;;1.50;;
53801;SDS011;39709;53.334;6.534;2023-03-31T11:58:52;8.80;;;2.10;;
53801;SDS011;39709;53.334;6.534;2023-03-31T12:04:03;6.68;;;1.70;;
53801;SDS011;39709;53.334;6.534;2023-03-31T12:06:32;7.53;;;1.37;;
53801;SDS011;39709;53.334;6.534;2023-03-31T12:09:20;6.68;;;1.17;;
53801;SDS011;39709;53.334;6.534;2023-03-31T12:14:27;5.03;;;0.80;;
53801;SDS011;39709;53.334;6.534;2023-03-31T12:17:14;8.98;;;1.48;;
53801;SDS011;39709;53.334;6.534;2023-03-31T12:19:57;8.80;;;1.70;;
53801;SDS011;39709;53.334;6.534;2023-03-31T12:22:35;6.50;;;1.77;;
53801;SDS011;39709;53.334;6.534;2023-03-31T12:25:04;4.00;;;0.73;;
53801;SDS011;39709;53.334;6.534;2023-03-31T12:27:37;5.88;;;0.75;;
53801;SDS011;39709;53.334;6.534;2023-03-31T12:30:08;6.25;;;1.20;;
53801;SDS011;39709;53.334;6.534;2023-03-31T12:32:54;4.00;;;1.00;;
53801;SDS011;39709;53.334;6.534;2023-03-31T12:50:16;6.72;;;0.95;;
53801;SDS011;39709;53.334;6.534;2023-03-31T12:52:55;7.93;;;1.48;;
53801;SDS011;39709;53.334;6.534;2023-03-31T12:55:47;7.30;;;1.60;;
53801;SDS011;39709;53.334;6.534;2023-03-31T13:03:50;9.23;;;2.28;;
53801;SDS011;39709;53.334;6.534;2023-03-31T13:09:05;7.00;;;1.63;;
53801;SDS011;39709;53.334;6.534;2023-03-31T13:11:37;12.43;;;4.65;;
53801;SDS011;39709;53.334;6.534;2023-03-31T13:16:41;6.35;;;1.27;;
53801;SDS011;39709;53.334;6.534;2023-03-31T13:19:09;6.60;;;1.00;;
53801;SDS011;39709;53.334;6.534;2023-03-31T13:21:56;8.90;;;2.50;;
53801;SDS011;39709;53.334;6.534;2023-03-31T13:24:25;10.48;;;8.90;;
53801;SDS011;39709;53.334;6.534;2023-03-31T13:26:51;6.47;;;3.03;;
53801;SDS011;39709;53.334;6.534;2023-03-31T13:34:27;4.80;;;1.33;;
53801;SDS011;39709;53.334;6.534;2023-03-31T13:37:12;8.00;;;2.65;;
53801;SDS011;39709;53.334;6.534;2023-03-31T13:45:04;3.53;;;0.70;;
53801;SDS011;39709;53.334;6.534;2023-03-31T14:07:27;8.13;;;1.80;;
53801;SDS011;39709;53.334;6.534;2023-03-31T14:09:54;2.37;;;0.40;;
53801;SDS011;39709;53.334;6.534;2023-03-31T14:12:35;5.60;;;0.80;;
53801;SDS011;39709;53.334;6.534;2023-03-31T14:15:02;6.32;;;0.70;;
53801;SDS011;39709;53.334;6.534;2023-03-31T14:17:32;4.75;;;0.70;;
53801;SDS011;39709;53.334;6.534;2023-03-31T14:20:05;36.13;;;16.05;;
53801;SDS011;39709;53.334;6.534;2023-03-31T14:25:25;5.50;;;0.95;;
53801;SDS011;39709;53.334;6.534;2023-03-31T14:37:24;4.13;;;0.70;;
53801;SDS011;39709;53.334;6.534;2023-03-31T14:39:28;5.38;;;0.75;;
53801;SDS011;39709;53.334;6.534;2023-03-31T14:41:57;7.05;;;1.65;;
53801;SDS011;39709;53.334;6.534;2023-03-31T14:44:26;5.38;;;0.77;;
53801;SDS011;39709;53.334;6.534;2023-03-31T14:46:55;3.22;;;0.90;;
53801;SDS011;39709;53.334;6.534;2023-03-31T14:49:26;4.73;;;0.90;;
53801;SDS011;39709;53.334;6.534;2023-03-31T14:51:54;4.90;;;0.90;;
53801;SDS011;39709;53.334;6.534;2023-03-31T14:54:24;6.15;;;1.10;;
53801;SDS011;39709;53.334;6.534;2023-03-31T14:56:54;2.75;;;0.60;;
53801;SDS011;39709;53.334;6.534;2023-03-31T14:59:26;7.47;;;0.80;;
53801;SDS011;39709;53.334;6.534;2023-03-31T15:01:58;4.65;;;0.70;;
53801;SDS011;39709;53.334;6.534;2023-03-31T15:04:27;1.75;;;0.40;;
53801;SDS011;39709;53.334;6.534;2023-03-31T15:06:54;2.65;;;0.30;;
53801;SDS011;39709;53.334;6.534;2023-03-31T15:11:55;6.60;;;0.90;;
53801;SDS011;39709;53.334;6.534;2023-03-31T15:14:33;2.33;;;0.32;;
53801;SDS011;39709;53.334;6.534;2023-03-31T15:17:04;2.92;;;0.40;;
53801;SDS011;39709;53.334;6.534;2023-03-31T15:19:32;3.40;;;0.60;;
53801;SDS011;39709;53.334;6.534;2023-03-31T15:22:15;4.15;;;0.60;;
53801;SDS011;39709;53.334;6.534;2023-03-31T15:24:44;6.57;;;0.82;;
53801;SDS011;39709;53.334;6.534;2023-03-31T15:29:51;3.80;;;0.70;;
53801;SDS011;39709;53.334;6.534;2023-03-31T15:32:27;6.87;;;1.00;;
53801;SDS011;39709;53.334;6.534;2023-03-31T15:34:55;5.07;;;0.80;;
53801;SDS011;39709;53.334;6.534;2023-03-31T15:37:26;5.78;;;0.85;;
53801;SDS011;39709;53.334;6.534;2023-03-31T15:39:57;2.90;;;0.63;;
53801;SDS011;39709;53.334;6.534;2023-03-31T15:42:25;9.63;;;2.90;;
53801;SDS011;39709;53.334;6.534;2023-03-31T15:44:56;11.53;;;4.97;;
53801;SDS011;39709;53.334;6.534;2023-03-31T15:47:47;5.65;;;1.55;;
53801;SDS011;39709;53.334;6.534;2023-03-31T15:50:17;6.78;;;2.13;;
53801;SDS011;39709;53.334;6.534;2023-03-31T15:52:47;2.38;;;0.57;;
53801;SDS011;39709;53.334;6.534;2023-03-31T15:55:30;4.35;;;0.52;;
53801;SDS011;39709;53.334;6.534;2023-03-31T15:58:03;2.77;;;0.47;;
53801;SDS011;39709;53.334;6.534;2023-03-31T16:03:04;5.47;;;0.75;;
53801;SDS011;39709;53.334;6.534;2023-03-31T16:05:52;5.65;;;0.80;;
53801;SDS011;39709;53.334;6.534;2023-03-31T16:08:30;5.63;;;0.90;;
53801;SDS011;39709;53.334;6.534;2023-03-31T16:11:03;6.80;;;1.13;;
53801;SDS011;39709;53.334;6.534;2023-03-31T16:13:38;5.05;;;0.65;;
53801;SDS011;39709;53.334;6.534;2023-03-31T16:16:07;7.00;;;0.90;;
53801;SDS011;39709;53.334;6.534;2023-03-31T16:18:39;6.50;;;0.77;;
53801;SDS011;39709;53.334;6.534;2023-03-31T16:21:10;4.93;;;0.70;;
53801;SDS011;39709;53.334;6.534;2023-03-31T16:23:38;5.13;;;0.70;;
53801;SDS011;39709;53.334;6.534;2023-03-31T16:26:05;6.15;;;0.90;;
53801;SDS011;39709;53.334;6.534;2023-03-31T16:28:33;4.70;;;0.82;;
53801;SDS011;39709;53.334;6.534;2023-03-31T16:31:01;5.03;;;0.88;;
53801;SDS011;39709;53.334;6.534;2023-03-31T16:33:29;8.87;;;1.13;;
53801;SDS011;39709;53.334;6.534;2023-03-31T16:36:15;7.25;;;0.82;;
53801;SDS011;39709;53.334;6.534;2023-03-31T16:38:41;5.93;;;0.90;;
53801;SDS011;39709;53.334;6.534;2023-03-31T16:41:07;4.85;;;0.90;;
53801;SDS011;39709;53.334;6.534;2023-03-31T16:43:33;4.50;;;0.80;;
53801;SDS011;39709;53.334;6.534;2023-03-31T16:46:00;6.03;;;1.02;;
53801;SDS011;39709;53.334;6.534;2023-03-31T16:48:28;8.05;;;0.90;;
53801;SDS011;39709;53.334;6.534;2023-03-31T16:50:57;6.43;;;1.00;;
53801;SDS011;39709;53.334;6.534;2023-03-31T16:53:31;4.70;;;0.83;;
53801;SDS011;39709;53.334;6.534;2023-03-31T16:55:58;4.28;;;0.82;;
53801;SDS011;39709;53.334;6.534;2023-03-31T16:58:25;5.47;;;1.10;;
53801;SDS011;39709;53.334;6.534;2023-03-31T17:00:54;5.30;;;0.90;;
53801;SDS011;39709;53.334;6.534;2023-03-31T17:03:21;7.47;;;0.98;;
53801;SDS011;39709;53.334;6.534;2023-03-31T17:05:48;5.00;;;0.60;;
53801;SDS011;39709;53.334;6.534;2023-03-31T17:08:19;8.52;;;1.38;;
53801;SDS011;39709;53.334;6.534;2023-03-31T17:10:53;6.55;;;0.90;;
53801;SDS011;39709;53.334;6.534;2023-03-31T17:13:22;5.55;;;0.85;;
53801;SDS011;39709;53.334;6.534;2023-03-31T17:15:47;5.93;;;0.80;;
53801;SDS011;39709;53.334;6.534;2023-03-31T17:18:14;7.50;;;1.13;;
53801;SDS011;39709;53.334;6.534;2023-03-31T17:20:41;9.70;;;1.63;;
53801;SDS011;39709;53.334;6.534;2023-03-31T17:23:07;8.02;;;1.13;;
53801;SDS011;39709;53.334;6.534;2023-03-31T17:25:32;5.37;;;1.03;;
53801;SDS011;39709;53.334;6.534;2023-03-31T17:28:00;6.85;;;1.58;;
53801;SDS011;39709;53.334;6.534;2023-03-31T17:30:28;8.20;;;1.40;;
53801;SDS011;39709;53.334;6.534;2023-03-31T17:32:55;7.15;;;1.38;;
53801;SDS011;39709;53.334;6.534;2023-03-31T17:35:22;11.70;;;1.80;;
53801;SDS011;39709;53.334;6.534;2023-03-31T17:37:48;10.48;;;1.52;;
53801;SDS011;39709;53.334;6.534;2023-03-31T17:40:17;9.13;;;1.73;;
53801;SDS011;39709;53.334;6.534;2023-03-31T17:42:43;10.18;;;1.33;;
53801;SDS011;39709;53.334;6.534;2023-03-31T17:45:11;7.25;;;1.40;;
53801;SDS011;39709;53.334;6.534;2023-03-31T17:47:38;8.97;;;1.60;;
53801;SDS011;39709;53.334;6.534;2023-03-31T17:50:04;5.10;;;1.23;;
53801;SDS011;39709;53.334;6.534;2023-03-31T17:52:30;8.40;;;1.60;;
53801;SDS011;39709;53.334;6.534;2023-03-31T17:54:57;7.43;;;1.50;;
53801;SDS011;39709;53.334;6.534;2023-03-31T17:57:23;8.35;;;1.95;;
53801;SDS011;39709;53.334;6.534;2023-03-31T17:59:49;8.67;;;1.37;;
53801;SDS011;39709;53.334;6.534;2023-03-31T18:02:15;10.90;;;1.90;;
53801;SDS011;39709;53.334;6.534;2023-03-31T18:04:41;6.50;;;1.13;;
53801;SDS011;39709;53.334;6.534;2023-03-31T18:07:07;4.57;;;1.10;;
53801;SDS011;39709;53.334;6.534;2023-03-31T18:09:33;8.07;;;1.00;;
53801;SDS011;39709;53.334;6.534;2023-03-31T18:11:59;6.73;;;1.10;;
53801;SDS011;39709;53.334;6.534;2023-03-31T18:14:24;8.88;;;1.38;;